sensor_id;sensor_type;location;lat;lon;timestamp;temperature;humidity
12887;DHT22;6511;49.746;6.094;2022-07-19T00:01:37;16.40;99.90
12887;DHT22;6511;49.746;6.094;2022-07-19T00:04:03;16.30;99.90
12887;DHT22;6511;49.746;6.094;2022-07-19T00:06:29;16.20;99.90
12887;DHT22;6511;49.746;6.094;2022-07-19T00:08:55;16.10;99.90
12887;DHT22;6511;49.746;6.094;2022-07-19T00:11:20;16.00;99.90
12887;DHT22;6511;49.746;6.094;2022-07-19T00:13:46;16.10;99.90
12887;DHT22;6511;49.746;6.094;2022-07-19T00:16:12;15.90;99.90
12887;DHT22;6511;49.746;6.094;2022-07-19T00:18:38;15.90;99.90
12887;DHT22;6511;49.746;6.094;2022-07-19T00:21:03;15.80;99.90
12887;DHT22;6511;49.746;6.094;2022-07-19T00:23:29;15.70;99.90
12887;DHT22;6511;49.746;6.094;2022-07-19T00:25:55;15.50;99.90
12887;DHT22;6511;49.746;6.094;2022-07-19T00:28:21;15.50;99.90
12887;DHT22;6511;49.746;6.094;2022-07-19T00:30:46;15.50;99.90
12887;DHT22;6511;49.746;6.094;2022-07-19T00:33:12;15.60;99.90
12887;DHT22;6511;49.746;6.094;2022-07-19T00:35:38;15.50;99.90
12887;DHT22;6511;49.746;6.094;2022-07-19T00:38:05;15.50;99.90
12887;DHT22;6511;49.746;6.094;2022-07-19T00:40:31;15.60;99.90
12887;DHT22;6511;49.746;6.094;2022-07-19T00:42:57;15.60;99.90
12887;DHT22;6511;49.746;6.094;2022-07-19T00:45:23;15.70;99.90
12887;DHT22;6511;49.746;6.094;2022-07-19T00:47:49;15.50;99.90
12887;DHT22;6511;49.746;6.094;2022-07-19T00:50:15;15.40;99.90
12887;DHT22;6511;49.746;6.094;2022-07-19T00:52:43;15.40;99.90
12887;DHT22;6511;49.746;6.094;2022-07-19T00:55:11;15.30;99.90
12887;DHT22;6511;49.746;6.094;2022-07-19T00:57:38;15.30;99.90
12887;DHT22;6511;49.746;6.094;2022-07-19T01:00:05;15.30;99.90
12887;DHT22;6511;49.746;6.094;2022-07-19T01:02:31;15.30;99.90
12887;DHT22;6511;49.746;6.094;2022-07-19T01:04:57;15.30;99.90
12887;DHT22;6511;49.746;6.094;2022-07-19T01:07:24;15.20;99.90
12887;DHT22;6511;49.746;6.094;2022-07-19T01:09:50;15.20;99.90
12887;DHT22;6511;49.746;6.094;2022-07-19T01:12:17;15.10;99.90
12887;DHT22;6511;49.746;6.094;2022-07-19T01:14:43;14.80;99.90
12887;DHT22;6511;49.746;6.094;2022-07-19T01:17:08;14.80;99.90
12887;DHT22;6511;49.746;6.094;2022-07-19T01:19:34;14.80;99.90
12887;DHT22;6511;49.746;6.094;2022-07-19T01:22:00;14.70;99.90
12887;DHT22;6511;49.746;6.094;2022-07-19T01:24:26;14.70;99.90
12887;DHT22;6511;49.746;6.094;2022-07-19T01:26:51;14.80;99.90
12887;DHT22;6511;49.746;6.094;2022-07-19T01:29:17;14.80;99.90
12887;DHT22;6511;49.746;6.094;2022-07-19T01:31:43;14.70;99.90
12887;DHT22;6511;49.746;6.094;2022-07-19T01:34:09;14.70;99.90
12887;DHT22;6511;49.746;6.094;2022-07-19T01:36:35;14.60;99.90
12887;DHT22;6511;49.746;6.094;2022-07-19T01:39:01;14.50;99.90
12887;DHT22;6511;49.746;6.094;2022-07-19T01:41:26;14.50;99.90
12887;DHT22;6511;49.746;6.094;2022-07-19T01:43:52;14.40;99.90
12887;DHT22;6511;49.746;6.094;2022-07-19T01:46:18;14.50;99.90
12887;DHT22;6511;49.746;6.094;2022-07-19T01:48:43;14.40;99.90
12887;DHT22;6511;49.746;6.094;2022-07-19T01:51:09;14.40;99.90
12887;DHT22;6511;49.746;6.094;2022-07-19T01:53:35;14.20;99.90
12887;DHT22;6511;49.746;6.094;2022-07-19T01:56:04;14.20;99.90
12887;DHT22;6511;49.746;6.094;2022-07-19T01:58:30;14.10;99.90
12887;DHT22;6511;49.746;6.094;2022-07-19T02:00:55;14.20;99.90
12887;DHT22;6511;49.746;6.094;2022-07-19T02:03:22;14.20;99.90
12887;DHT22;6511;49.746;6.094;2022-07-19T02:05:47;14.30;99.90
12887;DHT22;6511;49.746;6.094;2022-07-19T02:08:13;14.40;99.90
12887;DHT22;6511;49.746;6.094;2022-07-19T02:10:39;14.40;99.90
12887;DHT22;6511;49.746;6.094;2022-07-19T02:13:04;14.40;99.90
12887;DHT22;6511;49.746;6.094;2022-07-19T02:15:30;14.40;99.90
12887;DHT22;6511;49.746;6.094;2022-07-19T02:17:55;14.40;99.90
12887;DHT22;6511;49.746;6.094;2022-07-19T02:20:21;14.30;99.90
12887;DHT22;6511;49.746;6.094;2022-07-19T02:22:47;14.20;99.90
12887;DHT22;6511;49.746;6.094;2022-07-19T02:25:13;14.00;99.90
12887;DHT22;6511;49.746;6.094;2022-07-19T02:27:39;13.90;99.90
12887;DHT22;6511;49.746;6.094;2022-07-19T02:30:06;13.90;99.90
12887;DHT22;6511;49.746;6.094;2022-07-19T02:32:32;13.90;99.90
12887;DHT22;6511;49.746;6.094;2022-07-19T02:34:57;13.80;99.90
12887;DHT22;6511;49.746;6.094;2022-07-19T02:37:23;13.70;99.90
12887;DHT22;6511;49.746;6.094;2022-07-19T02:39:49;13.70;99.90
12887;DHT22;6511;49.746;6.094;2022-07-19T02:42:15;13.60;99.90
12887;DHT22;6511;49.746;6.094;2022-07-19T02:44:41;13.60;99.90
12887;DHT22;6511;49.746;6.094;2022-07-19T02:47:06;13.60;99.90
12887;DHT22;6511;49.746;6.094;2022-07-19T02:49:32;13.60;99.90
12887;DHT22;6511;49.746;6.094;2022-07-19T02:51:58;13.50;99.90
12887;DHT22;6511;49.746;6.094;2022-07-19T02:54:23;13.40;99.90
12887;DHT22;6511;49.746;6.094;2022-07-19T02:56:49;13.40;99.90
12887;DHT22;6511;49.746;6.094;2022-07-19T02:59:15;13.30;99.90
12887;DHT22;6511;49.746;6.094;2022-07-19T03:01:40;13.30;99.90
12887;DHT22;6511;49.746;6.094;2022-07-19T03:04:06;13.40;99.90
12887;DHT22;6511;49.746;6.094;2022-07-19T03:06:32;13.40;99.90
12887;DHT22;6511;49.746;6.094;2022-07-19T03:08:57;13.40;99.90
12887;DHT22;6511;49.746;6.094;2022-07-19T03:11:23;13.40;99.90
12887;DHT22;6511;49.746;6.094;2022-07-19T03:13:49;13.40;99.90
12887;DHT22;6511;49.746;6.094;2022-07-19T03:16:15;13.40;99.90
12887;DHT22;6511;49.746;6.094;2022-07-19T03:18:40;13.30;99.90
12887;DHT22;6511;49.746;6.094;2022-07-19T03:21:06;13.30;99.90
12887;DHT22;6511;49.746;6.094;2022-07-19T03:23:33;13.30;99.90
12887;DHT22;6511;49.746;6.094;2022-07-19T03:25:59;13.30;99.90
12887;DHT22;6511;49.746;6.094;2022-07-19T03:28:26;13.30;99.90
12887;DHT22;6511;49.746;6.094;2022-07-19T03:30:52;13.30;99.90
12887;DHT22;6511;49.746;6.094;2022-07-19T03:33:17;13.30;99.90
12887;DHT22;6511;49.746;6.094;2022-07-19T03:35:44;13.20;99.90
12887;DHT22;6511;49.746;6.094;2022-07-19T03:38:11;13.10;99.90
12887;DHT22;6511;49.746;6.094;2022-07-19T03:40:38;13.10;99.90
12887;DHT22;6511;49.746;6.094;2022-07-19T03:43:05;12.90;99.90
12887;DHT22;6511;49.746;6.094;2022-07-19T03:45:30;12.90;99.90
12887;DHT22;6511;49.746;6.094;2022-07-19T03:47:56;12.80;99.90
12887;DHT22;6511;49.746;6.094;2022-07-19T03:50:22;12.80;99.90
12887;DHT22;6511;49.746;6.094;2022-07-19T03:52:47;12.80;99.90
12887;DHT22;6511;49.746;6.094;2022-07-19T03:55:13;12.70;99.90
12887;DHT22;6511;49.746;6.094;2022-07-19T03:57:39;12.80;99.90
12887;DHT22;6511;49.746;6.094;2022-07-19T04:00:05;12.90;99.90
12887;DHT22;6511;49.746;6.094;2022-07-19T04:02:31;12.90;99.90
12887;DHT22;6511;49.746;6.094;2022-07-19T04:04:57;12.90;99.90
12887;DHT22;6511;49.746;6.094;2022-07-19T04:07:23;12.90;99.90
12887;DHT22;6511;49.746;6.094;2022-07-19T04:09:49;13.00;99.90
12887;DHT22;6511;49.746;6.094;2022-07-19T04:12:14;13.10;99.90
12887;DHT22;6511;49.746;6.094;2022-07-19T04:14:40;13.10;99.90
12887;DHT22;6511;49.746;6.094;2022-07-19T04:17:05;13.20;99.90
12887;DHT22;6511;49.746;6.094;2022-07-19T04:19:31;13.10;99.90
12887;DHT22;6511;49.746;6.094;2022-07-19T04:21:57;13.20;99.90
12887;DHT22;6511;49.746;6.094;2022-07-19T04:24:23;13.30;99.90
12887;DHT22;6511;49.746;6.094;2022-07-19T04:26:48;13.40;99.90
12887;DHT22;6511;49.746;6.094;2022-07-19T04:29:14;13.40;99.90
12887;DHT22;6511;49.746;6.094;2022-07-19T04:31:40;13.40;99.90
12887;DHT22;6511;49.746;6.094;2022-07-19T04:34:05;13.40;99.90
12887;DHT22;6511;49.746;6.094;2022-07-19T04:36:32;13.40;99.90
12887;DHT22;6511;49.746;6.094;2022-07-19T04:38:57;13.40;99.90
12887;DHT22;6511;49.746;6.094;2022-07-19T04:41:23;13.50;99.90
12887;DHT22;6511;49.746;6.094;2022-07-19T04:43:49;13.60;99.90
12887;DHT22;6511;49.746;6.094;2022-07-19T04:46:14;13.60;99.90
12887;DHT22;6511;49.746;6.094;2022-07-19T04:48:40;13.70;99.90
12887;DHT22;6511;49.746;6.094;2022-07-19T04:51:07;13.80;99.90
12887;DHT22;6511;49.746;6.094;2022-07-19T04:53:32;13.90;99.90
12887;DHT22;6511;49.746;6.094;2022-07-19T04:55:58;13.80;99.90
12887;DHT22;6511;49.746;6.094;2022-07-19T04:58:24;13.90;99.90
12887;DHT22;6511;49.746;6.094;2022-07-19T05:00:49;14.00;99.90
12887;DHT22;6511;49.746;6.094;2022-07-19T05:03:15;13.90;99.90
12887;DHT22;6511;49.746;6.094;2022-07-19T05:05:40;14.10;99.90
12887;DHT22;6511;49.746;6.094;2022-07-19T05:08:06;14.30;99.90
12887;DHT22;6511;49.746;6.094;2022-07-19T05:10:32;14.20;99.90
12887;DHT22;6511;49.746;6.094;2022-07-19T05:12:58;14.40;99.90
12887;DHT22;6511;49.746;6.094;2022-07-19T05:15:23;14.50;99.90
12887;DHT22;6511;49.746;6.094;2022-07-19T05:17:49;14.70;99.90
12887;DHT22;6511;49.746;6.094;2022-07-19T05:20:15;14.70;99.90
12887;DHT22;6511;49.746;6.094;2022-07-19T05:22:42;14.90;99.90
12887;DHT22;6511;49.746;6.094;2022-07-19T05:25:08;14.90;99.90
12887;DHT22;6511;49.746;6.094;2022-07-19T05:27:35;15.00;99.90
12887;DHT22;6511;49.746;6.094;2022-07-19T05:30:01;15.10;99.90
12887;DHT22;6511;49.746;6.094;2022-07-19T05:32:27;15.30;99.90
12887;DHT22;6511;49.746;6.094;2022-07-19T05:34:52;15.40;99.90
12887;DHT22;6511;49.746;6.094;2022-07-19T05:37:18;15.50;99.90
12887;DHT22;6511;49.746;6.094;2022-07-19T05:39:44;15.60;99.90
12887;DHT22;6511;49.746;6.094;2022-07-19T05:42:09;15.70;99.90
12887;DHT22;6511;49.746;6.094;2022-07-19T05:44:35;15.80;99.90
12887;DHT22;6511;49.746;6.094;2022-07-19T05:47:01;15.90;99.90
12887;DHT22;6511;49.746;6.094;2022-07-19T05:49:27;15.90;99.90
12887;DHT22;6511;49.746;6.094;2022-07-19T05:51:52;16.00;99.90
12887;DHT22;6511;49.746;6.094;2022-07-19T05:54:18;16.20;99.90
12887;DHT22;6511;49.746;6.094;2022-07-19T05:56:44;16.30;99.90
12887;DHT22;6511;49.746;6.094;2022-07-19T05:59:10;16.40;99.90
12887;DHT22;6511;49.746;6.094;2022-07-19T06:01:35;16.60;99.90
12887;DHT22;6511;49.746;6.094;2022-07-19T06:04:01;16.70;99.90
12887;DHT22;6511;49.746;6.094;2022-07-19T06:06:29;16.80;99.90
12887;DHT22;6511;49.746;6.094;2022-07-19T06:08:55;16.90;99.90
12887;DHT22;6511;49.746;6.094;2022-07-19T06:11:22;17.00;99.90
12887;DHT22;6511;49.746;6.094;2022-07-19T06:13:49;17.00;99.90
12887;DHT22;6511;49.746;6.094;2022-07-19T06:16:15;17.10;99.90
12887;DHT22;6511;49.746;6.094;2022-07-19T06:18:41;17.20;99.90
12887;DHT22;6511;49.746;6.094;2022-07-19T06:21:09;17.30;99.90
12887;DHT22;6511;49.746;6.094;2022-07-19T06:23:35;17.50;99.90
12887;DHT22;6511;49.746;6.094;2022-07-19T06:26:01;17.60;99.90
12887;DHT22;6511;49.746;6.094;2022-07-19T06:28:27;17.70;99.90
12887;DHT22;6511;49.746;6.094;2022-07-19T06:30:53;17.80;99.90
12887;DHT22;6511;49.746;6.094;2022-07-19T06:33:19;18.00;99.90
12887;DHT22;6511;49.746;6.094;2022-07-19T06:35:45;18.10;99.90
12887;DHT22;6511;49.746;6.094;2022-07-19T06:38:11;18.20;99.90
12887;DHT22;6511;49.746;6.094;2022-07-19T06:40:36;18.30;99.90
12887;DHT22;6511;49.746;6.094;2022-07-19T06:43:02;18.30;99.90
12887;DHT22;6511;49.746;6.094;2022-07-19T06:45:28;18.70;99.90
12887;DHT22;6511;49.746;6.094;2022-07-19T06:47:53;18.70;99.90
12887;DHT22;6511;49.746;6.094;2022-07-19T06:50:19;18.70;99.90
12887;DHT22;6511;49.746;6.094;2022-07-19T06:52:45;18.80;99.90
12887;DHT22;6511;49.746;6.094;2022-07-19T06:55:11;18.90;99.90
12887;DHT22;6511;49.746;6.094;2022-07-19T06:57:36;19.00;99.90
12887;DHT22;6511;49.746;6.094;2022-07-19T07:00:04;19.20;99.90
12887;DHT22;6511;49.746;6.094;2022-07-19T07:02:31;19.40;99.90
12887;DHT22;6511;49.746;6.094;2022-07-19T07:04:56;19.70;99.90
12887;DHT22;6511;49.746;6.094;2022-07-19T07:07:22;20.00;99.90
12887;DHT22;6511;49.746;6.094;2022-07-19T07:09:48;20.10;99.90
12887;DHT22;6511;49.746;6.094;2022-07-19T07:12:13;20.30;99.90
12887;DHT22;6511;49.746;6.094;2022-07-19T07:14:39;20.50;99.90
12887;DHT22;6511;49.746;6.094;2022-07-19T07:17:05;20.80;99.90
12887;DHT22;6511;49.746;6.094;2022-07-19T07:19:30;20.80;99.90
12887;DHT22;6511;49.746;6.094;2022-07-19T07:21:56;20.80;99.90
12887;DHT22;6511;49.746;6.094;2022-07-19T07:24:25;20.70;99.90
12887;DHT22;6511;49.746;6.094;2022-07-19T07:26:51;21.20;99.90
12887;DHT22;6511;49.746;6.094;2022-07-19T07:29:17;21.30;99.90
12887;DHT22;6511;49.746;6.094;2022-07-19T07:31:42;21.50;99.90
12887;DHT22;6511;49.746;6.094;2022-07-19T07:34:08;21.70;99.90
12887;DHT22;6511;49.746;6.094;2022-07-19T07:36:34;22.00;99.70
12887;DHT22;6511;49.746;6.094;2022-07-19T07:38:59;22.00;99.70
12887;DHT22;6511;49.746;6.094;2022-07-19T07:41:25;22.00;99.90
12887;DHT22;6511;49.746;6.094;2022-07-19T07:43:51;22.20;99.10
12887;DHT22;6511;49.746;6.094;2022-07-19T07:46:16;22.40;99.10
12887;DHT22;6511;49.746;6.094;2022-07-19T07:48:48;22.70;99.00
12887;DHT22;6511;49.746;6.094;2022-07-19T07:51:14;22.80;98.30
12887;DHT22;6511;49.746;6.094;2022-07-19T07:53:39;22.80;98.30
12887;DHT22;6511;49.746;6.094;2022-07-19T07:56:05;22.90;97.50
12887;DHT22;6511;49.746;6.094;2022-07-19T07:58:31;23.10;97.90
12887;DHT22;6511;49.746;6.094;2022-07-19T08:00:57;23.40;97.90
12887;DHT22;6511;49.746;6.094;2022-07-19T08:03:22;23.40;97.40
12887;DHT22;6511;49.746;6.094;2022-07-19T08:05:48;23.30;97.40
12887;DHT22;6511;49.746;6.094;2022-07-19T08:08:15;23.40;97.40
12887;DHT22;6511;49.746;6.094;2022-07-19T08:10:40;23.60;97.30
12887;DHT22;6511;49.746;6.094;2022-07-19T08:13:06;23.70;96.90
12887;DHT22;6511;49.746;6.094;2022-07-19T08:15:33;23.80;96.30
12887;DHT22;6511;49.746;6.094;2022-07-19T08:17:59;23.90;96.00
12887;DHT22;6511;49.746;6.094;2022-07-19T08:20:24;24.00;96.30
12887;DHT22;6511;49.746;6.094;2022-07-19T08:22:50;24.20;95.80
12887;DHT22;6511;49.746;6.094;2022-07-19T08:25:16;24.50;95.60
12887;DHT22;6511;49.746;6.094;2022-07-19T08:27:45;24.50;95.70
12887;DHT22;6511;49.746;6.094;2022-07-19T08:30:12;24.80;95.60
12887;DHT22;6511;49.746;6.094;2022-07-19T08:32:38;24.80;95.20
12887;DHT22;6511;49.746;6.094;2022-07-19T08:35:05;25.20;95.10
12887;DHT22;6511;49.746;6.094;2022-07-19T08:37:31;25.50;95.00
12887;DHT22;6511;49.746;6.094;2022-07-19T08:40:00;25.50;95.20
12887;DHT22;6511;49.746;6.094;2022-07-19T08:42:25;25.60;95.30
12887;DHT22;6511;49.746;6.094;2022-07-19T08:44:53;26.10;95.50
12887;DHT22;6511;49.746;6.094;2022-07-19T08:47:20;26.10;95.10
12887;DHT22;6511;49.746;6.094;2022-07-19T08:49:47;26.50;94.30
12887;DHT22;6511;49.746;6.094;2022-07-19T08:52:13;26.60;92.90
12887;DHT22;6511;49.746;6.094;2022-07-19T08:54:39;26.70;92.80
12887;DHT22;6511;49.746;6.094;2022-07-19T08:57:05;27.00;92.00
12887;DHT22;6511;49.746;6.094;2022-07-19T08:59:49;27.40;92.10
12887;DHT22;6511;49.746;6.094;2022-07-19T09:02:15;27.50;90.60
12887;DHT22;6511;49.746;6.094;2022-07-19T09:04:41;27.80;90.80
12887;DHT22;6511;49.746;6.094;2022-07-19T09:07:07;27.80;89.70
12887;DHT22;6511;49.746;6.094;2022-07-19T09:09:34;28.20;88.70
12887;DHT22;6511;49.746;6.094;2022-07-19T09:12:03;28.10;89.50
12887;DHT22;6511;49.746;6.094;2022-07-19T09:17:06;28.40;86.60
12887;DHT22;6511;49.746;6.094;2022-07-19T09:19:43;28.60;84.70
12887;DHT22;6511;49.746;6.094;2022-07-19T09:22:17;29.00;84.80
12887;DHT22;6511;49.746;6.094;2022-07-19T09:29:42;29.30;83.80
12887;DHT22;6511;49.746;6.094;2022-07-19T09:34:59;30.10;81.60
12887;DHT22;6511;49.746;6.094;2022-07-19T09:37:28;30.40;78.80
12887;DHT22;6511;49.746;6.094;2022-07-19T09:40:08;30.40;78.80
12887;DHT22;6511;49.746;6.094;2022-07-19T09:42:42;30.50;78.50
12887;DHT22;6511;49.746;6.094;2022-07-19T09:45:15;30.50;78.00
12887;DHT22;6511;49.746;6.094;2022-07-19T09:47:45;30.40;77.90
12887;DHT22;6511;49.746;6.094;2022-07-19T09:50:13;30.60;77.40
12887;DHT22;6511;49.746;6.094;2022-07-19T09:52:43;30.50;76.90
12887;DHT22;6511;49.746;6.094;2022-07-19T09:55:11;30.50;77.50
12887;DHT22;6511;49.746;6.094;2022-07-19T09:57:39;30.80;78.30
12887;DHT22;6511;49.746;6.094;2022-07-19T10:00:08;30.60;77.40
12887;DHT22;6511;49.746;6.094;2022-07-19T10:02:36;30.70;77.30
12887;DHT22;6511;49.746;6.094;2022-07-19T10:05:03;31.20;76.60
12887;DHT22;6511;49.746;6.094;2022-07-19T10:07:31;31.30;75.70
12887;DHT22;6511;49.746;6.094;2022-07-19T10:10:02;31.40;75.90
12887;DHT22;6511;49.746;6.094;2022-07-19T10:12:29;31.60;75.50
12887;DHT22;6511;49.746;6.094;2022-07-19T10:14:55;31.40;75.10
12887;DHT22;6511;49.746;6.094;2022-07-19T10:20:26;31.60;74.60
12887;DHT22;6511;49.746;6.094;2022-07-19T10:22:52;31.30;74.70
12887;DHT22;6511;49.746;6.094;2022-07-19T10:25:19;31.10;75.20
12887;DHT22;6511;49.746;6.094;2022-07-19T10:27:50;31.40;73.50
12887;DHT22;6511;49.746;6.094;2022-07-19T10:30:25;31.40;75.20
12887;DHT22;6511;49.746;6.094;2022-07-19T10:32:54;31.80;75.10
12887;DHT22;6511;49.746;6.094;2022-07-19T10:35:30;31.80;74.10
12887;DHT22;6511;49.746;6.094;2022-07-19T10:43:35;31.90;75.30
12887;DHT22;6511;49.746;6.094;2022-07-19T10:46:08;31.80;75.30
12887;DHT22;6511;49.746;6.094;2022-07-19T10:48:45;32.10;71.60
12887;DHT22;6511;49.746;6.094;2022-07-19T10:51:28;32.20;71.50
12887;DHT22;6511;49.746;6.094;2022-07-19T10:53:55;32.10;71.50
12887;DHT22;6511;49.746;6.094;2022-07-19T10:56:27;32.00;71.20
12887;DHT22;6511;49.746;6.094;2022-07-19T11:01:21;32.50;71.90
12887;DHT22;6511;49.746;6.094;2022-07-19T11:03:49;32.70;70.20
12887;DHT22;6511;49.746;6.094;2022-07-19T11:06:26;32.60;69.30
12887;DHT22;6511;49.746;6.094;2022-07-19T11:08:54;32.70;68.70
12887;DHT22;6511;49.746;6.094;2022-07-19T11:11:21;32.60;69.30
12887;DHT22;6511;49.746;6.094;2022-07-19T11:13:52;32.50;69.20
12887;DHT22;6511;49.746;6.094;2022-07-19T11:16:19;32.60;69.50
12887;DHT22;6511;49.746;6.094;2022-07-19T11:18:45;32.60;70.10
12887;DHT22;6511;49.746;6.094;2022-07-19T11:21:12;32.70;69.50
12887;DHT22;6511;49.746;6.094;2022-07-19T11:23:39;32.60;68.40
12887;DHT22;6511;49.746;6.094;2022-07-19T11:26:09;32.80;68.30
12887;DHT22;6511;49.746;6.094;2022-07-19T11:28:37;33.00;68.00
12887;DHT22;6511;49.746;6.094;2022-07-19T11:31:14;32.90;68.00
12887;DHT22;6511;49.746;6.094;2022-07-19T11:33:40;32.80;69.10
12887;DHT22;6511;49.746;6.094;2022-07-19T11:36:06;32.80;68.10
12887;DHT22;6511;49.746;6.094;2022-07-19T11:41:21;33.00;67.70
12887;DHT22;6511;49.746;6.094;2022-07-19T11:44:04;33.10;68.10
12887;DHT22;6511;49.746;6.094;2022-07-19T11:46:38;33.30;69.60
12887;DHT22;6511;49.746;6.094;2022-07-19T11:49:08;33.40;67.80
12887;DHT22;6511;49.746;6.094;2022-07-19T11:51:34;33.30;67.20
12887;DHT22;6511;49.746;6.094;2022-07-19T11:54:02;33.20;68.10
12887;DHT22;6511;49.746;6.094;2022-07-19T11:56:33;33.20;68.10
12887;DHT22;6511;49.746;6.094;2022-07-19T11:59:01;33.30;68.50
12887;DHT22;6511;49.746;6.094;2022-07-19T12:01:34;33.10;69.20
12887;DHT22;6511;49.746;6.094;2022-07-19T12:04:11;33.00;69.10
12887;DHT22;6511;49.746;6.094;2022-07-19T12:09:08;33.60;68.10
12887;DHT22;6511;49.746;6.094;2022-07-19T12:14:23;33.80;69.10
12887;DHT22;6511;49.746;6.094;2022-07-19T12:19:35;33.90;68.70
12887;DHT22;6511;49.746;6.094;2022-07-19T12:22:01;33.70;66.90
12887;DHT22;6511;49.746;6.094;2022-07-19T12:24:28;33.50;68.10
12887;DHT22;6511;49.746;6.094;2022-07-19T12:26:59;33.60;67.50
12887;DHT22;6511;49.746;6.094;2022-07-19T12:29:51;33.70;67.60
12887;DHT22;6511;49.746;6.094;2022-07-19T12:32:34;33.90;66.90
12887;DHT22;6511;49.746;6.094;2022-07-19T12:37:41;34.00;65.00
12887;DHT22;6511;49.746;6.094;2022-07-19T12:40:17;34.20;64.60
12887;DHT22;6511;49.746;6.094;2022-07-19T12:42:50;34.20;63.40
12887;DHT22;6511;49.746;6.094;2022-07-19T12:45:17;34.10;64.70
12887;DHT22;6511;49.746;6.094;2022-07-19T12:47:44;34.20;65.80
12887;DHT22;6511;49.746;6.094;2022-07-19T12:50:25;34.00;65.30
12887;DHT22;6511;49.746;6.094;2022-07-19T12:52:53;34.60;65.70
12887;DHT22;6511;49.746;6.094;2022-07-19T12:55:19;34.50;65.30
12887;DHT22;6511;49.746;6.094;2022-07-19T12:57:47;34.70;64.90
12887;DHT22;6511;49.746;6.094;2022-07-19T13:00:13;34.70;63.80
12887;DHT22;6511;49.746;6.094;2022-07-19T13:02:39;34.40;63.80
12887;DHT22;6511;49.746;6.094;2022-07-19T13:05:06;34.20;64.00
12887;DHT22;6511;49.746;6.094;2022-07-19T13:07:31;34.30;65.70
12887;DHT22;6511;49.746;6.094;2022-07-19T13:09:57;34.50;65.90
12887;DHT22;6511;49.746;6.094;2022-07-19T13:12:22;34.50;64.50
12887;DHT22;6511;49.746;6.094;2022-07-19T13:14:48;34.40;66.20
12887;DHT22;6511;49.746;6.094;2022-07-19T13:17:14;34.20;63.70
12887;DHT22;6511;49.746;6.094;2022-07-19T13:19:40;34.20;64.60
12887;DHT22;6511;49.746;6.094;2022-07-19T13:22:06;34.40;64.90
12887;DHT22;6511;49.746;6.094;2022-07-19T13:24:32;34.70;63.80
12887;DHT22;6511;49.746;6.094;2022-07-19T13:26:58;34.90;63.80
12887;DHT22;6511;49.746;6.094;2022-07-19T13:29:24;34.60;64.10
12887;DHT22;6511;49.746;6.094;2022-07-19T13:31:50;34.40;63.80
12887;DHT22;6511;49.746;6.094;2022-07-19T13:34:16;34.30;63.60
12887;DHT22;6511;49.746;6.094;2022-07-19T13:36:42;34.70;63.50
12887;DHT22;6511;49.746;6.094;2022-07-19T13:39:08;34.70;62.30
12887;DHT22;6511;49.746;6.094;2022-07-19T13:41:36;34.80;61.60
12887;DHT22;6511;49.746;6.094;2022-07-19T13:44:02;34.70;61.70
12887;DHT22;6511;49.746;6.094;2022-07-19T13:46:28;34.60;62.50
12887;DHT22;6511;49.746;6.094;2022-07-19T13:48:53;34.60;63.40
12887;DHT22;6511;49.746;6.094;2022-07-19T13:51:20;34.60;63.60
12887;DHT22;6511;49.746;6.094;2022-07-19T13:53:46;34.60;64.80
12887;DHT22;6511;49.746;6.094;2022-07-19T13:56:13;34.70;63.70
12887;DHT22;6511;49.746;6.094;2022-07-19T13:58:39;34.90;63.60
12887;DHT22;6511;49.746;6.094;2022-07-19T14:01:05;34.90;63.80
12887;DHT22;6511;49.746;6.094;2022-07-19T14:03:31;35.00;64.00
12887;DHT22;6511;49.746;6.094;2022-07-19T14:05:57;35.00;63.10
12887;DHT22;6511;49.746;6.094;2022-07-19T14:08:22;34.90;63.00
12887;DHT22;6511;49.746;6.094;2022-07-19T14:10:48;34.90;61.00
12887;DHT22;6511;49.746;6.094;2022-07-19T14:13:14;34.80;63.40
12887;DHT22;6511;49.746;6.094;2022-07-19T14:15:40;35.20;60.40
12887;DHT22;6511;49.746;6.094;2022-07-19T14:18:06;35.20;61.70
12887;DHT22;6511;49.746;6.094;2022-07-19T14:20:31;35.20;62.20
12887;DHT22;6511;49.746;6.094;2022-07-19T14:22:57;35.00;61.60
12887;DHT22;6511;49.746;6.094;2022-07-19T14:25:23;34.90;63.50
12887;DHT22;6511;49.746;6.094;2022-07-19T14:27:50;35.00;63.70
12887;DHT22;6511;49.746;6.094;2022-07-19T14:30:16;34.90;63.40
12887;DHT22;6511;49.746;6.094;2022-07-19T14:32:47;35.20;64.00
12887;DHT22;6511;49.746;6.094;2022-07-19T14:35:13;35.40;63.90
12887;DHT22;6511;49.746;6.094;2022-07-19T14:37:42;35.30;62.90
12887;DHT22;6511;49.746;6.094;2022-07-19T14:40:10;35.30;62.00
12887;DHT22;6511;49.746;6.094;2022-07-19T14:42:36;35.50;63.90
12887;DHT22;6511;49.746;6.094;2022-07-19T14:45:01;35.60;64.20
12887;DHT22;6511;49.746;6.094;2022-07-19T14:47:28;35.70;63.90
12887;DHT22;6511;49.746;6.094;2022-07-19T14:49:54;35.40;62.90
12887;DHT22;6511;49.746;6.094;2022-07-19T14:52:23;35.20;63.70
12887;DHT22;6511;49.746;6.094;2022-07-19T14:54:48;35.10;64.50
12887;DHT22;6511;49.746;6.094;2022-07-19T14:57:14;35.50;64.80
12887;DHT22;6511;49.746;6.094;2022-07-19T14:59:43;35.60;63.40
12887;DHT22;6511;49.746;6.094;2022-07-19T15:02:08;35.50;62.10
12887;DHT22;6511;49.746;6.094;2022-07-19T15:04:35;35.60;63.30
12887;DHT22;6511;49.746;6.094;2022-07-19T15:07:01;35.70;63.30
12887;DHT22;6511;49.746;6.094;2022-07-19T15:09:26;35.50;63.30
12887;DHT22;6511;49.746;6.094;2022-07-19T15:11:52;35.50;63.20
12887;DHT22;6511;49.746;6.094;2022-07-19T15:14:18;35.60;63.50
12887;DHT22;6511;49.746;6.094;2022-07-19T15:16:43;35.40;62.70
12887;DHT22;6511;49.746;6.094;2022-07-19T15:19:10;35.50;62.10
12887;DHT22;6511;49.746;6.094;2022-07-19T15:21:36;35.50;61.50
12887;DHT22;6511;49.746;6.094;2022-07-19T15:24:03;35.30;62.10
12887;DHT22;6511;49.746;6.094;2022-07-19T15:26:29;35.40;63.30
12887;DHT22;6511;49.746;6.094;2022-07-19T15:28:58;35.40;64.50
12887;DHT22;6511;49.746;6.094;2022-07-19T15:31:23;35.60;65.00
12887;DHT22;6511;49.746;6.094;2022-07-19T15:33:49;35.70;63.60
12887;DHT22;6511;49.746;6.094;2022-07-19T15:36:15;35.50;63.20
12887;DHT22;6511;49.746;6.094;2022-07-19T15:38:40;35.40;64.20
12887;DHT22;6511;49.746;6.094;2022-07-19T15:41:06;35.30;63.60
12887;DHT22;6511;49.746;6.094;2022-07-19T15:43:33;35.30;62.00
12887;DHT22;6511;49.746;6.094;2022-07-19T15:45:58;35.50;63.10
12887;DHT22;6511;49.746;6.094;2022-07-19T15:48:24;35.30;63.00
12887;DHT22;6511;49.746;6.094;2022-07-19T15:50:50;35.30;63.50
12887;DHT22;6511;49.746;6.094;2022-07-19T15:53:15;35.30;62.90
12887;DHT22;6511;49.746;6.094;2022-07-19T15:55:41;35.30;63.70
12887;DHT22;6511;49.746;6.094;2022-07-19T15:58:07;35.40;62.00
12887;DHT22;6511;49.746;6.094;2022-07-19T16:00:32;35.20;61.30
12887;DHT22;6511;49.746;6.094;2022-07-19T16:02:59;35.20;61.40
12887;DHT22;6511;49.746;6.094;2022-07-19T16:05:24;35.30;60.80
12887;DHT22;6511;49.746;6.094;2022-07-19T16:07:53;35.40;60.80
12887;DHT22;6511;49.746;6.094;2022-07-19T16:10:19;35.20;60.40
12887;DHT22;6511;49.746;6.094;2022-07-19T16:12:44;35.20;61.30
12887;DHT22;6511;49.746;6.094;2022-07-19T16:15:10;35.30;60.90
12887;DHT22;6511;49.746;6.094;2022-07-19T16:17:36;35.40;60.60